createdAt,value
2018-11-14T00:00:43.669Z,8.73
2018-11-14T00:03:13.518Z,8.87
2018-11-14T00:05:43.105Z,6.90
2018-11-14T00:08:12.801Z,7.67
2018-11-14T00:10:42.461Z,7.23
2018-11-14T00:13:12.142Z,7.87
2018-11-14T00:15:41.952Z,7.70
2018-11-14T00:18:11.572Z,7.20
2018-11-14T00:20:41.322Z,5.60
2018-11-14T00:23:11.053Z,7.47
2018-11-14T00:25:40.681Z,6.43
2018-11-14T00:28:10.364Z,7.00
2018-11-14T00:30:40.020Z,6.33
2018-11-14T00:33:09.966Z,7.40
2018-11-14T00:35:39.669Z,6.73
2018-11-14T00:38:09.408Z,6.90
2018-11-14T00:40:39.160Z,7.20
2018-11-14T00:43:08.841Z,7.70
2018-11-14T00:45:38.553Z,6.50
2018-11-14T00:48:08.201Z,5.47
2018-11-14T00:50:38.062Z,5.60
2018-11-14T00:53:07.788Z,5.87
2018-11-14T00:55:37.581Z,5.10
2018-11-14T00:58:07.244Z,4.40
2018-11-14T01:00:37.108Z,5.03
2018-11-14T01:03:06.960Z,4.73
2018-11-14T01:05:36.709Z,5.60
2018-11-14T01:08:06.494Z,4.97
2018-11-14T01:10:36.252Z,4.80
2018-11-14T01:13:06.019Z,5.47
2018-11-14T01:15:35.709Z,5.33
2018-11-14T01:18:05.756Z,4.97
2018-11-14T01:20:35.351Z,5.40
2018-11-14T01:23:05.008Z,5.70
2018-11-14T01:25:34.773Z,4.70
2018-11-14T01:28:04.739Z,4.73
2018-11-14T01:30:37.210Z,5.40
2018-11-14T01:33:09.084Z,4.17
2018-11-14T01:35:42.540Z,5.07
2018-11-14T01:38:12.223Z,4.70
2018-11-14T01:40:42.000Z,5.13
2018-11-14T01:43:11.763Z,4.53
2018-11-14T01:45:41.491Z,5.20
2018-11-14T01:48:11.184Z,5.40
2018-11-14T01:50:40.854Z,5.40
2018-11-14T01:53:10.646Z,4.50
2018-11-14T01:55:40.308Z,4.53
2018-11-14T01:58:10.155Z,4.53
2018-11-14T02:00:39.933Z,4.37
2018-11-14T02:03:09.784Z,4.37
2018-11-14T02:05:39.549Z,4.50
2018-11-14T02:08:09.413Z,4.70
2018-11-14T02:10:39.180Z,4.60
2018-11-14T02:13:09.054Z,3.70
2018-11-14T02:15:38.589Z,3.57
2018-11-14T02:18:08.188Z,4.00
2018-11-14T02:20:37.956Z,3.77
2018-11-14T02:23:07.607Z,3.50
2018-11-14T02:25:37.313Z,3.77
2018-11-14T02:28:07.221Z,4.00
2018-11-14T02:30:36.947Z,3.17
2018-11-14T02:33:06.729Z,3.77
2018-11-14T02:35:36.481Z,3.90
2018-11-14T02:38:06.333Z,3.60
2018-11-14T02:40:36.000Z,4.30
2018-11-14T02:43:06.078Z,3.27
2018-11-14T02:45:35.632Z,3.53
2018-11-14T02:48:05.496Z,4.10
2018-11-14T02:50:35.244Z,3.50
2018-11-14T02:53:05.052Z,4.00
2018-11-14T02:55:34.770Z,4.33
2018-11-14T02:58:04.519Z,4.07
2018-11-14T03:00:34.293Z,4.03
2018-11-14T03:03:04.109Z,3.70
2018-11-14T03:05:33.801Z,4.53
2018-11-14T03:08:03.516Z,3.40
2018-11-14T03:10:33.288Z,3.73
2018-11-14T03:13:02.945Z,3.40
2018-11-14T03:15:32.733Z,4.17
2018-11-14T03:18:02.469Z,3.80
2018-11-14T03:20:32.179Z,3.47
2018-11-14T03:23:02.036Z,3.60
2018-11-14T03:25:31.660Z,3.87
2018-11-14T03:28:01.470Z,3.60
2018-11-14T03:30:31.225Z,4.00
2018-11-14T03:33:00.982Z,3.60
2018-11-14T03:35:35.737Z,4.13
2018-11-14T03:38:05.625Z,4.73
2018-11-14T03:40:35.399Z,4.60
2018-11-14T03:43:05.296Z,4.83
2018-11-14T03:45:35.289Z,3.93
2018-11-14T03:48:05.080Z,3.60
2018-11-14T03:50:34.710Z,3.70
2018-11-14T03:53:04.508Z,3.90
2018-11-14T03:55:34.264Z,4.23
2018-11-14T03:58:04.225Z,4.20
2018-11-14T04:00:33.960Z,3.83
2018-11-14T04:03:03.748Z,3.80
2018-11-14T04:05:33.499Z,3.73
2018-11-14T04:08:03.264Z,3.90
2018-11-14T04:10:32.927Z,4.60
2018-11-14T04:13:02.722Z,4.27
2018-11-14T04:15:32.601Z,4.63
2018-11-14T04:18:02.336Z,4.60
2018-11-14T04:20:31.920Z,4.00
2018-11-14T04:23:01.478Z,4.27
2018-11-14T04:25:31.133Z,5.07
2018-11-14T04:28:00.894Z,4.40
2018-11-14T04:30:30.580Z,4.30
2018-11-14T04:33:00.412Z,4.43
2018-11-14T04:35:30.216Z,4.10
2018-11-14T04:37:59.988Z,4.30
2018-11-14T04:40:29.756Z,4.20
2018-11-14T04:42:59.521Z,5.00
2018-11-14T04:45:29.170Z,4.57
2018-11-14T04:47:58.988Z,4.73
2018-11-14T04:50:28.688Z,4.30
2018-11-14T04:52:58.369Z,4.27
2018-11-14T04:55:28.068Z,4.20
2018-11-14T04:57:57.721Z,5.60
2018-11-14T05:00:28.004Z,4.97
2018-11-14T05:02:57.729Z,4.33
2018-11-14T05:05:27.520Z,5.03
2018-11-14T05:07:57.144Z,4.90
2018-11-14T05:10:27.488Z,4.83
2018-11-14T05:12:57.866Z,4.70
2018-11-14T05:15:27.605Z,4.57
2018-11-14T05:17:57.356Z,4.30
2018-11-14T05:20:27.089Z,4.83
2018-11-14T05:22:56.923Z,4.90
2018-11-14T05:25:26.568Z,4.90
2018-11-14T05:27:56.192Z,5.63
2018-11-14T05:30:26.052Z,4.80
2018-11-14T05:32:55.677Z,6.37
2018-11-14T05:35:25.274Z,5.80
2018-11-14T05:37:54.819Z,6.20
2018-11-14T05:40:24.669Z,4.53
2018-11-14T05:42:54.445Z,5.50
2018-11-14T05:45:25.767Z,5.40
2018-11-14T05:47:55.349Z,4.87
2018-11-14T05:50:25.195Z,5.40
2018-11-14T05:52:55.076Z,5.00
2018-11-14T05:55:24.846Z,6.03
2018-11-14T05:57:54.757Z,5.53
2018-11-14T06:00:28.466Z,6.10
2018-11-14T06:02:58.832Z,5.60
2018-11-14T06:05:28.491Z,5.80
2018-11-14T06:07:58.356Z,4.83
2018-11-14T06:10:28.019Z,4.50
2018-11-14T06:12:57.819Z,5.70
2018-11-14T06:15:27.714Z,5.63
2018-11-14T06:17:58.271Z,5.60
2018-11-14T06:20:27.980Z,5.57
2018-11-14T06:22:57.650Z,5.33
2018-11-14T06:25:29.264Z,4.70
2018-11-14T06:27:59.865Z,6.37
2018-11-14T06:30:29.835Z,5.40
2018-11-14T06:32:59.445Z,6.20
2018-11-14T06:35:28.552Z,6.30
2018-11-14T06:37:58.002Z,6.27
2018-11-14T06:40:27.182Z,5.40
2018-11-14T06:42:56.399Z,5.57
2018-11-14T06:45:26.570Z,6.57
2018-11-14T06:47:56.767Z,5.70
2018-11-14T06:50:25.879Z,6.30
2018-11-14T06:52:56.671Z,5.27
2018-11-14T06:55:25.779Z,6.03
2018-11-14T06:57:54.787Z,6.60
2018-11-14T07:00:25.765Z,6.93
2018-11-14T07:02:56.024Z,7.23
2018-11-14T07:05:25.791Z,6.20
2018-11-14T07:07:55.436Z,6.43
2018-11-14T07:10:27.395Z,6.80
2018-11-14T07:13:02.181Z,6.10
2018-11-14T07:15:31.843Z,6.33
2018-11-14T07:18:01.755Z,7.57
2018-11-14T07:20:33.756Z,6.57
2018-11-14T07:23:03.525Z,6.57
2018-11-14T07:25:33.287Z,5.97
2018-11-14T07:28:02.952Z,5.97
2018-11-14T07:30:33.358Z,6.63
2018-11-14T07:33:06.225Z,6.50
2018-11-14T07:35:36.020Z,6.00
2018-11-14T07:38:46.545Z,7.30
2018-11-14T07:41:22.192Z,5.70
2018-11-14T07:43:51.976Z,5.43
2018-11-14T07:46:22.138Z,4.93
2018-11-14T07:48:52.156Z,5.67
2018-11-14T07:51:22.056Z,5.50
2018-11-14T07:53:51.912Z,5.77
2018-11-14T07:56:21.715Z,5.40
2018-11-14T07:58:51.642Z,5.70
2018-11-14T08:01:21.440Z,5.60
2018-11-14T08:03:51.192Z,5.10
2018-11-14T08:06:21.131Z,5.10
2018-11-14T08:08:50.888Z,4.53
2018-11-14T08:11:20.650Z,4.73
2018-11-14T08:13:50.725Z,5.37
2018-11-14T08:16:20.593Z,5.20
2018-11-14T08:18:50.418Z,5.47
2018-11-14T08:21:20.214Z,4.50
2018-11-14T08:23:49.966Z,4.30
2018-11-14T08:26:19.740Z,4.17
2018-11-14T08:28:49.594Z,4.00
2018-11-14T08:31:19.257Z,4.23
2018-11-14T08:33:49.013Z,3.30
2018-11-14T08:36:18.673Z,4.10
2018-11-14T08:38:48.252Z,4.87
2018-11-14T08:41:18.768Z,3.70
2018-11-14T08:43:48.725Z,3.53
2018-11-14T08:46:18.438Z,4.30
2018-11-14T08:48:48.190Z,3.53
2018-11-14T08:51:17.849Z,4.70
2018-11-14T08:53:47.549Z,4.23
2018-11-14T08:56:17.368Z,4.73
2018-11-14T08:58:47.090Z,4.27
2018-11-14T09:01:16.945Z,3.80
2018-11-14T09:03:46.692Z,3.30
2018-11-14T09:06:16.629Z,2.53
2018-11-14T09:08:46.400Z,3.53
2018-11-14T09:11:16.247Z,3.60
2018-11-14T09:13:45.963Z,2.87
2018-11-14T09:16:15.877Z,3.27
2018-11-14T09:18:45.735Z,2.90
2018-11-14T09:21:15.268Z,2.80
2018-11-14T09:23:45.004Z,3.87
2018-11-14T09:26:14.659Z,2.80
2018-11-14T09:28:44.416Z,3.43
2018-11-14T09:31:14.318Z,2.90
2018-11-14T09:33:44.144Z,3.40
2018-11-14T09:36:13.929Z,4.43
2018-11-14T09:38:43.665Z,4.93
2018-11-14T09:41:13.483Z,4.17
2018-11-14T09:43:43.296Z,5.77
2018-11-14T09:46:13.076Z,3.80
2018-11-14T09:48:42.866Z,4.90
2018-11-14T09:51:12.437Z,3.00
2018-11-14T09:53:42.197Z,4.17
2018-11-14T09:56:11.958Z,4.13
2018-11-14T09:58:41.762Z,3.40
2018-11-14T10:01:11.490Z,4.07
2018-11-14T10:03:41.188Z,4.90
2018-11-14T10:06:11.002Z,3.17
2018-11-14T10:08:40.598Z,3.30
2018-11-14T10:11:10.313Z,3.47
2018-11-14T10:13:40.017Z,4.40
2018-11-14T10:16:09.665Z,3.47
2018-11-14T10:18:39.537Z,2.70
2018-11-14T10:21:09.421Z,2.90
2018-11-14T10:23:39.132Z,3.53
2018-11-14T10:26:08.674Z,3.50
2018-11-14T10:28:38.650Z,3.77
2018-11-14T10:31:08.507Z,3.30
2018-11-14T10:33:38.204Z,3.83
2018-11-14T10:36:08.021Z,2.60
2018-11-14T10:38:37.888Z,4.03
2018-11-14T10:41:07.624Z,3.77
2018-11-14T10:43:37.316Z,3.17
2018-11-14T10:46:07.286Z,2.87
2018-11-14T10:48:37.142Z,2.60
2018-11-14T10:51:06.981Z,3.23
2018-11-14T10:53:36.868Z,3.03
2018-11-14T10:56:06.965Z,3.03
2018-11-14T10:58:36.741Z,2.97
2018-11-14T11:02:10.357Z,2.40
2018-11-14T11:04:44.998Z,2.60
2018-11-14T11:07:19.941Z,2.33
2018-11-14T11:09:54.532Z,2.83
2018-11-14T11:13:27.330Z,2.30
2018-11-14T11:16:02.204Z,2.20
2018-11-14T11:18:33.330Z,2.33
2018-11-14T11:21:03.228Z,2.50
2018-11-14T11:23:33.210Z,2.80
2018-11-14T11:26:02.872Z,2.90
2018-11-14T11:28:32.699Z,3.10
2018-11-14T11:31:02.470Z,2.73
2018-11-14T11:33:32.237Z,2.87
2018-11-14T11:36:02.005Z,3.13
2018-11-14T11:38:31.713Z,2.37
2018-11-14T11:41:01.505Z,3.30
2018-11-14T11:43:31.284Z,2.90
2018-11-14T11:46:01.040Z,2.50
2018-11-14T11:48:30.698Z,3.57
2018-11-14T11:51:00.424Z,2.43
2018-11-14T11:53:30.365Z,3.43
2018-11-14T11:56:02.911Z,2.87
2018-11-14T11:58:33.801Z,3.30
2018-11-14T12:01:06.096Z,2.50
2018-11-14T12:03:38.430Z,3.00
2018-11-14T12:06:11.549Z,1.97
2018-11-14T12:08:44.115Z,2.83
2018-11-14T12:11:17.037Z,3.03
2018-11-14T12:13:46.971Z,3.60
2018-11-14T12:16:16.556Z,3.40
2018-11-14T12:18:46.163Z,2.87
2018-11-14T12:21:15.905Z,3.10
2018-11-14T12:23:45.654Z,2.50
2018-11-14T12:26:15.376Z,3.13
2018-11-14T12:28:45.055Z,2.67
2018-11-14T12:31:14.931Z,2.53
2018-11-14T12:33:44.555Z,3.57
2018-11-14T12:36:14.265Z,3.73
2018-11-14T12:38:44.062Z,3.70
2018-11-14T12:41:13.973Z,2.93
2018-11-14T12:43:43.703Z,2.90
2018-11-14T12:46:13.612Z,4.83
2018-11-14T12:48:43.304Z,4.10
2018-11-14T12:51:12.996Z,4.13
2018-11-14T12:53:42.737Z,3.80
2018-11-14T12:56:12.624Z,4.20
2018-11-14T12:58:42.289Z,3.57
2018-11-14T13:01:12.038Z,3.87
2018-11-14T13:03:41.597Z,3.00
2018-11-14T13:06:11.405Z,4.07
2018-11-14T13:08:41.161Z,3.80
2018-11-14T13:11:10.816Z,4.47
2018-11-14T13:13:49.276Z,3.50
2018-11-14T13:16:19.287Z,3.17
2018-11-14T13:18:48.971Z,4.03
2018-11-14T13:21:18.825Z,3.30
2018-11-14T13:23:48.388Z,2.60
2018-11-14T13:26:18.077Z,3.27
2018-11-14T13:28:47.953Z,2.70
2018-11-14T13:31:17.605Z,2.83
2018-11-14T13:33:47.319Z,3.27
2018-11-14T13:36:17.121Z,2.50
2018-11-14T13:38:46.725Z,3.43
2018-11-14T13:41:16.569Z,2.80
2018-11-14T13:43:46.341Z,2.87
2018-11-14T13:46:16.136Z,2.73
2018-11-14T13:48:45.726Z,3.53
2018-11-14T13:51:15.456Z,2.63
2018-11-14T13:53:45.084Z,2.70
2018-11-14T13:56:14.212Z,3.90
2018-11-14T13:58:43.884Z,3.33
2018-11-14T14:01:13.749Z,2.30
2018-11-14T14:03:43.556Z,2.87
2018-11-14T14:06:13.401Z,3.20
2018-11-14T14:08:43.066Z,3.63
2018-11-14T14:11:12.623Z,2.83
2018-11-14T14:13:47.268Z,2.70
2018-11-14T14:16:16.952Z,2.30
2018-11-14T14:18:46.776Z,2.63
2018-11-14T14:21:16.304Z,2.87
2018-11-14T14:23:45.992Z,2.67
2018-11-14T14:26:15.748Z,2.70
2018-11-14T14:28:45.456Z,2.47
2018-11-14T14:31:15.330Z,2.67
2018-11-14T14:33:44.976Z,2.47
2018-11-14T14:36:14.688Z,3.60
2018-11-14T14:38:44.448Z,3.13
2018-11-14T14:41:14.000Z,3.37
2018-11-14T14:43:42.999Z,4.37
2018-11-14T14:46:12.043Z,3.20
2018-11-14T14:48:41.242Z,2.93
2018-11-14T14:51:10.328Z,3.30
2018-11-14T14:53:39.320Z,2.90
2018-11-14T14:56:08.358Z,3.20
2018-11-14T14:58:37.512Z,4.00
2018-11-14T15:01:06.505Z,2.80
2018-11-14T15:03:35.593Z,3.43
2018-11-14T15:06:04.505Z,3.47
2018-11-14T15:08:33.590Z,3.30
2018-11-14T15:11:02.682Z,2.73
2018-11-14T15:13:31.677Z,3.10
2018-11-14T15:16:00.773Z,3.17
2018-11-14T15:18:29.864Z,3.10
2018-11-14T15:20:58.942Z,3.00
2018-11-14T15:23:28.117Z,2.97
2018-11-14T15:25:57.128Z,2.70
2018-11-14T15:28:26.311Z,3.10
2018-11-14T15:30:55.403Z,3.00
2018-11-14T15:33:26.170Z,3.43
2018-11-14T15:35:55.250Z,3.33
2018-11-14T15:38:24.694Z,2.70
2018-11-14T15:40:54.764Z,3.30
2018-11-14T15:43:24.668Z,3.47
2018-11-14T15:45:54.878Z,3.30
2018-11-14T15:48:25.888Z,3.43
2018-11-14T15:50:56.078Z,3.33
2018-11-14T15:53:26.235Z,3.73
2018-11-14T15:55:55.606Z,2.90
2018-11-14T15:58:25.049Z,3.20
2018-11-14T16:00:54.496Z,3.33
2018-11-14T16:03:23.868Z,3.40
2018-11-14T16:05:53.699Z,8.60
2018-11-14T16:08:23.072Z,6.77
2018-11-14T16:10:52.691Z,8.53
2018-11-14T16:13:22.353Z,5.67
2018-11-14T16:15:51.902Z,4.57
2018-11-14T16:18:21.454Z,3.70
2018-11-14T16:20:51.152Z,3.50
2018-11-14T16:23:20.548Z,5.10
2018-11-14T16:25:50.177Z,5.00
2018-11-14T16:28:19.797Z,4.90
2018-11-14T16:30:49.647Z,4.97
2018-11-14T16:33:19.262Z,5.13
2018-11-14T16:35:48.625Z,4.30
2018-11-14T16:38:18.267Z,3.90
2018-11-14T16:40:47.856Z,3.70
2018-11-14T16:43:17.654Z,3.80
2018-11-14T16:45:47.020Z,4.10
2018-11-14T16:48:16.449Z,4.20
2018-11-14T16:50:45.343Z,4.77
2018-11-14T16:53:14.185Z,5.60
2018-11-14T16:55:43.345Z,5.50
2018-11-14T16:58:12.186Z,6.20
2018-11-14T17:00:41.003Z,5.00
2018-11-14T17:03:10.036Z,6.03
2018-11-14T17:05:38.920Z,6.47
2018-11-14T17:08:07.786Z,7.97
2018-11-14T17:10:36.665Z,7.30
2018-11-14T17:13:05.903Z,6.20
2018-11-14T17:15:34.703Z,7.55
2018-11-14T17:18:03.740Z,6.60
2018-11-14T17:20:32.712Z,7.77
2018-11-14T17:23:01.536Z,6.40
2018-11-14T17:25:30.620Z,6.23
2018-11-14T17:27:59.628Z,5.70
2018-11-14T17:30:29.064Z,7.00
2018-11-14T17:32:58.239Z,6.40
2018-11-14T17:35:27.599Z,6.70
2018-11-14T17:37:56.415Z,6.60
2018-11-14T17:40:27.736Z,8.67
2018-11-14T17:42:57.300Z,8.17
2018-11-14T17:45:28.093Z,10.07
2018-11-14T17:47:57.939Z,10.90
2018-11-14T17:50:30.031Z,10.17
2018-11-14T17:53:00.232Z,8.50
2018-11-14T17:55:29.832Z,11.50
2018-11-14T17:57:59.541Z,9.20
2018-11-14T18:00:30.144Z,8.47
2018-11-14T18:03:00.134Z,11.00
2018-11-14T18:05:30.641Z,9.90
2018-11-14T18:08:00.063Z,10.27
2018-11-14T18:10:30.465Z,11.00
2018-11-14T18:13:00.831Z,9.10
2018-11-14T18:15:30.278Z,9.80
2018-11-14T18:18:00.191Z,9.30
2018-11-14T18:20:30.899Z,9.30
2018-11-14T18:23:00.385Z,9.33
2018-11-14T18:25:29.788Z,8.60
2018-11-14T18:27:59.223Z,8.20
2018-11-14T18:30:30.181Z,6.70
2018-11-14T18:33:00.564Z,6.47
2018-11-14T18:35:30.010Z,8.03
2018-11-14T18:38:00.231Z,10.87
2018-11-14T18:40:31.860Z,9.10
2018-11-14T18:43:01.250Z,10.07
2018-11-14T18:45:34.626Z,10.90
2018-11-14T18:48:04.581Z,11.50
2018-11-14T18:50:33.968Z,11.43
2018-11-14T18:53:03.804Z,9.07
2018-11-14T18:55:34.439Z,7.93
2018-11-14T18:58:04.660Z,7.20
2018-11-14T19:00:34.957Z,8.33
2018-11-14T19:03:04.864Z,8.77
2018-11-14T19:05:34.637Z,8.30
2018-11-14T19:08:04.553Z,7.30
2018-11-14T19:10:34.864Z,7.23
2018-11-14T19:13:04.621Z,8.10
2018-11-14T19:15:35.788Z,8.10
2018-11-14T19:18:06.400Z,6.30
2018-11-14T19:20:36.632Z,8.03
2018-11-14T19:23:06.915Z,7.10
2018-11-14T19:25:37.659Z,8.10
2018-11-14T19:28:07.921Z,6.70
2018-11-14T19:30:38.216Z,7.07
2018-11-14T19:33:07.905Z,8.27
2018-11-14T19:35:37.772Z,6.73
2018-11-14T19:38:07.436Z,7.30
2018-11-14T19:40:37.801Z,9.40
2018-11-14T19:43:09.776Z,9.20
2018-11-14T19:45:40.188Z,8.00
2018-11-14T19:48:10.068Z,6.90
2018-11-14T19:50:39.955Z,7.30
2018-11-14T19:53:09.760Z,6.70
2018-11-14T19:55:39.413Z,7.90
2018-11-14T19:58:08.996Z,7.73
2018-11-14T20:00:39.947Z,7.50
2018-11-14T20:03:10.186Z,8.73
2018-11-14T20:05:39.964Z,8.23
2018-11-14T20:08:09.636Z,8.80
2018-11-14T20:10:39.413Z,9.10
2018-11-14T20:13:09.258Z,9.60
2018-11-14T20:15:39.249Z,9.27
2018-11-14T20:18:09.231Z,9.80
2018-11-14T20:20:39.896Z,10.93
2018-11-14T20:23:09.709Z,11.30
2018-11-14T20:25:39.499Z,9.50
2018-11-14T20:28:09.213Z,11.10
2018-11-14T20:30:39.888Z,10.40
2018-11-14T20:33:11.064Z,12.10
2018-11-14T20:35:40.688Z,11.20
2018-11-14T20:38:10.619Z,9.93
2018-11-14T20:40:42.577Z,8.83
2018-11-14T20:43:12.437Z,8.63
2018-11-14T20:45:42.195Z,8.80
2018-11-14T20:48:12.061Z,8.00
2018-11-14T20:50:41.153Z,9.00
2018-11-14T20:53:10.512Z,9.03
2018-11-14T20:55:39.719Z,8.07
2018-11-14T20:58:08.807Z,8.90
2018-11-14T21:00:38.690Z,8.50
2018-11-14T21:03:07.885Z,9.13
2018-11-14T21:05:37.151Z,10.57
2018-11-14T21:08:06.414Z,10.50
2018-11-14T21:10:35.971Z,11.03
2018-11-14T21:13:05.443Z,9.13
2018-11-14T21:15:37.360Z,9.30
2018-11-14T21:18:07.424Z,11.03
2018-11-14T21:20:37.182Z,9.53
2018-11-14T21:23:07.165Z,8.33
2018-11-14T21:25:36.947Z,8.50
2018-11-14T21:28:06.633Z,9.60
2018-11-14T21:30:36.373Z,9.87
2018-11-14T21:33:06.211Z,8.03
2018-11-14T21:35:37.233Z,8.37
2018-11-14T21:38:08.454Z,9.47
2018-11-14T21:40:38.225Z,8.70
2018-11-14T21:43:08.293Z,9.20
2018-11-14T21:45:38.106Z,9.17
2018-11-14T21:48:13.553Z,9.20
2018-11-14T21:50:43.676Z,8.53
2018-11-14T21:53:13.728Z,9.93
2018-11-14T21:55:43.390Z,9.30
2018-11-14T21:58:13.164Z,9.90
2018-11-14T22:00:42.909Z,9.03
2018-11-14T22:03:12.833Z,8.80
2018-11-14T22:05:42.644Z,10.03
2018-11-14T22:08:12.390Z,10.50
2018-11-14T22:10:42.168Z,9.97
2018-11-14T22:13:11.878Z,10.30
2018-11-14T22:15:41.641Z,10.40
2018-11-14T22:18:11.442Z,10.17
2018-11-14T22:20:41.159Z,8.60
2018-11-14T22:23:10.921Z,10.83
2018-11-14T22:25:40.994Z,9.30
2018-11-14T22:28:10.761Z,10.60
2018-11-14T22:30:40.405Z,9.57
2018-11-14T22:33:10.188Z,8.80
2018-11-14T22:35:39.948Z,8.70
2018-11-14T22:38:09.528Z,9.87
2018-11-14T22:40:39.084Z,8.63
2018-11-14T22:43:08.969Z,9.30
2018-11-14T22:45:38.719Z,10.40
2018-11-14T22:48:08.586Z,11.43
2018-11-14T22:50:38.237Z,12.77
2018-11-14T22:53:08.085Z,11.47
2018-11-14T22:55:37.801Z,11.90
2018-11-14T22:58:07.533Z,10.43
2018-11-14T23:00:42.521Z,9.57
2018-11-14T23:03:12.374Z,10.50
2018-11-14T23:05:42.144Z,9.60
2018-11-14T23:08:12.098Z,8.57
2018-11-14T23:10:41.801Z,8.77
2018-11-14T23:13:11.554Z,9.83
2018-11-14T23:15:41.322Z,8.63
2018-11-14T23:18:11.200Z,10.30
2018-11-14T23:20:41.003Z,8.87
2018-11-14T23:23:10.777Z,8.67
2018-11-14T23:25:40.581Z,9.07
2018-11-14T23:28:10.212Z,8.67
2018-11-14T23:30:40.153Z,9.40
2018-11-14T23:33:10.017Z,9.40
2018-11-14T23:35:39.725Z,10.17
2018-11-14T23:38:09.488Z,9.97
2018-11-14T23:40:39.151Z,9.70
2018-11-14T23:43:08.901Z,9.93
2018-11-14T23:45:38.623Z,9.93
2018-11-14T23:48:08.377Z,9.67
2018-11-14T23:50:38.049Z,9.68
2018-11-14T23:53:07.914Z,9.13
2018-11-14T23:55:37.871Z,9.63
2018-11-14T23:58:07.744Z,9.30
